sensor_id;sensor_type;location;lat;lon;timestamp;pressure;altitude;pressure_sealevel;temperature
24586;BMP280;12743;52.262;6.172;2023-07-08T00:00:48;101192.47;;;20.37
24586;BMP280;12743;52.262;6.172;2023-07-08T00:03:16;101215.72;;;20.54
24586;BMP280;12743;52.262;6.172;2023-07-08T00:05:44;101214.94;;;20.12
24586;BMP280;12743;52.262;6.172;2023-07-08T00:08:15;101187.50;;;20.18
24586;BMP280;12743;52.262;6.172;2023-07-08T00:10:41;101189.03;;;20.05
24586;BMP280;12743;52.262;6.172;2023-07-08T00:13:09;101186.00;;;20.00
24586;BMP280;12743;52.262;6.172;2023-07-08T00:15:37;101158.91;;;19.84
24586;BMP280;12743;52.262;6.172;2023-07-08T00:18:13;101197.03;;;20.33
24586;BMP280;12743;52.262;6.172;2023-07-08T00:20:45;101189.03;;;20.30
24586;BMP280;12743;52.262;6.172;2023-07-08T00:23:13;101181.34;;;19.75
24586;BMP280;12743;52.262;6.172;2023-07-08T00:25:39;101175.97;;;19.58
24586;BMP280;12743;52.262;6.172;2023-07-08T00:28:14;101177.56;;;19.76
24586;BMP280;12743;52.262;6.172;2023-07-08T00:30:41;101165.41;;;19.90
24586;BMP280;12743;52.262;6.172;2023-07-08T00:33:08;101169.25;;;20.17
24586;BMP280;12743;52.262;6.172;2023-07-08T00:35:39;101161.19;;;19.92
24586;BMP280;12743;52.262;6.172;2023-07-08T00:38:24;101151.72;;;20.16
24586;BMP280;12743;52.262;6.172;2023-07-08T00:41:00;101163.13;;;19.99
24586;BMP280;12743;52.262;6.172;2023-07-08T00:43:38;101169.19;;;19.78
24586;BMP280;12743;52.262;6.172;2023-07-08T00:51:36;101149.34;;;19.47
24586;BMP280;12743;52.262;6.172;2023-07-08T00:54:17;101142.53;;;19.60
24586;BMP280;12743;52.262;6.172;2023-07-08T00:56:59;101135.28;;;19.75
24586;BMP280;12743;52.262;6.172;2023-07-08T01:02:18;101145.19;;;19.60
24586;BMP280;12743;52.262;6.172;2023-07-08T01:04:52;101135.28;;;19.64
24586;BMP280;12743;52.262;6.172;2023-07-08T01:07:24;101137.13;;;19.46
24586;BMP280;12743;52.262;6.172;2023-07-08T01:10:19;101129.03;;;19.15
24586;BMP280;12743;52.262;6.172;2023-07-08T01:12:49;101119.50;;;19.10
24586;BMP280;12743;52.262;6.172;2023-07-08T01:15:18;101108.16;;;19.20
24586;BMP280;12743;52.262;6.172;2023-07-08T01:17:45;101129.91;;;19.40
24586;BMP280;12743;52.262;6.172;2023-07-08T01:20:12;101118.41;;;19.22
24586;BMP280;12743;52.262;6.172;2023-07-08T01:22:42;101103.53;;;19.10
24586;BMP280;12743;52.262;6.172;2023-07-08T01:25:10;101113.50;;;19.27
24586;BMP280;12743;52.262;6.172;2023-07-08T01:27:40;101124.16;;;19.45
24586;BMP280;12743;52.262;6.172;2023-07-08T01:30:10;101109.34;;;19.37
24586;BMP280;12743;52.262;6.172;2023-07-08T01:32:40;101120.78;;;19.44
24586;BMP280;12743;52.262;6.172;2023-07-08T01:35:09;101121.00;;;19.01
24586;BMP280;12743;52.262;6.172;2023-07-08T01:37:40;101105.06;;;19.04
24586;BMP280;12743;52.262;6.172;2023-07-08T01:40:25;101121.47;;;19.20
24586;BMP280;12743;52.262;6.172;2023-07-08T01:42:53;101106.66;;;19.33
24586;BMP280;12743;52.262;6.172;2023-07-08T01:45:22;101112.75;;;19.27
24586;BMP280;12743;52.262;6.172;2023-07-08T01:47:58;101105.47;;;19.13
24586;BMP280;12743;52.262;6.172;2023-07-08T01:50:27;101100.91;;;19.17
24586;BMP280;12743;52.262;6.172;2023-07-08T01:52:57;101074.56;;;18.98
24586;BMP280;12743;52.262;6.172;2023-07-08T01:55:24;101096.34;;;19.21
24586;BMP280;12743;52.262;6.172;2023-07-08T01:57:52;101078.44;;;19.04
24586;BMP280;12743;52.262;6.172;2023-07-08T02:00:21;101070.03;;;19.06
24586;BMP280;12743;52.262;6.172;2023-07-08T02:02:50;101077.19;;;18.88
24586;BMP280;12743;52.262;6.172;2023-07-08T02:05:17;101070.69;;;18.78
24586;BMP280;12743;52.262;6.172;2023-07-08T02:07:43;101062.47;;;19.04
24586;BMP280;12743;52.262;6.172;2023-07-08T02:10:10;101072.03;;;19.26
24586;BMP280;12743;52.262;6.172;2023-07-08T02:12:37;101063.97;;;19.09
24586;BMP280;12743;52.262;6.172;2023-07-08T02:15:04;101034.22;;;18.86
24586;BMP280;12743;52.262;6.172;2023-07-08T02:17:31;101047.41;;;18.57
24586;BMP280;12743;52.262;6.172;2023-07-08T02:19:57;101047.47;;;18.75
24586;BMP280;12743;52.262;6.172;2023-07-08T02:22:24;101059.38;;;18.99
24586;BMP280;12743;52.262;6.172;2023-07-08T02:24:51;101061.31;;;19.12
24586;BMP280;12743;52.262;6.172;2023-07-08T02:27:17;101044.88;;;18.93
24586;BMP280;12743;52.262;6.172;2023-07-08T02:29:44;101051.22;;;18.60
24586;BMP280;12743;52.262;6.172;2023-07-08T02:32:10;101057.06;;;18.90
24586;BMP280;12743;52.262;6.172;2023-07-08T02:34:38;101045.66;;;18.93
24586;BMP280;12743;52.262;6.172;2023-07-08T02:37:06;101050.13;;;18.68
24586;BMP280;12743;52.262;6.172;2023-07-08T02:39:33;101032.25;;;18.72
24586;BMP280;12743;52.262;6.172;2023-07-08T02:42:00;101028.81;;;18.61
24586;BMP280;12743;52.262;6.172;2023-07-08T02:44:27;101014.34;;;18.55
24586;BMP280;12743;52.262;6.172;2023-07-08T02:46:54;101020.09;;;18.67
24586;BMP280;12743;52.262;6.172;2023-07-08T02:49:21;100996.47;;;18.59
24586;BMP280;12743;52.262;6.172;2023-07-08T02:51:48;101021.06;;;18.35
24586;BMP280;12743;52.262;6.172;2023-07-08T02:54:15;101014.66;;;18.46
24586;BMP280;12743;52.262;6.172;2023-07-08T02:56:42;101013.63;;;18.72
24586;BMP280;12743;52.262;6.172;2023-07-08T02:59:08;101014.78;;;18.64
24586;BMP280;12743;52.262;6.172;2023-07-08T03:01:35;101008.72;;;18.74
24586;BMP280;12743;52.262;6.172;2023-07-08T03:04:09;101022.34;;;18.69
24586;BMP280;12743;52.262;6.172;2023-07-08T03:06:43;101004.47;;;18.59
24586;BMP280;12743;52.262;6.172;2023-07-08T03:09:11;101010.25;;;18.71
24586;BMP280;12743;52.262;6.172;2023-07-08T03:11:39;101013.31;;;18.77
24586;BMP280;12743;52.262;6.172;2023-07-08T03:14:07;100994.53;;;18.52
24586;BMP280;12743;52.262;6.172;2023-07-08T03:16:34;100999.94;;;18.66
24586;BMP280;12743;52.262;6.172;2023-07-08T03:19:01;100987.00;;;18.61
24586;BMP280;12743;52.262;6.172;2023-07-08T03:21:28;100997.28;;;18.70
24586;BMP280;12743;52.262;6.172;2023-07-08T03:23:57;101001.41;;;18.50
24586;BMP280;12743;52.262;6.172;2023-07-08T03:26:26;100996.44;;;18.48
24586;BMP280;12743;52.262;6.172;2023-07-08T03:28:56;101001.31;;;18.36
24586;BMP280;12743;52.262;6.172;2023-07-08T03:31:24;100994.97;;;18.54
24586;BMP280;12743;52.262;6.172;2023-07-08T03:33:52;100999.50;;;18.50
24586;BMP280;12743;52.262;6.172;2023-07-08T03:36:19;100992.25;;;18.47
24586;BMP280;12743;52.262;6.172;2023-07-08T03:38:54;100951.88;;;18.24
24586;BMP280;12743;52.262;6.172;2023-07-08T03:41:22;100990.69;;;18.43
24586;BMP280;12743;52.262;6.172;2023-07-08T03:43:49;100983.41;;;18.26
24586;BMP280;12743;52.262;6.172;2023-07-08T03:46:19;101005.19;;;18.56
24586;BMP280;12743;52.262;6.172;2023-07-08T03:48:47;101001.75;;;18.52
24586;BMP280;12743;52.262;6.172;2023-07-08T03:51:22;101010.94;;;18.58
24586;BMP280;12743;52.262;6.172;2023-07-08T03:53:50;101009.91;;;18.08
24586;BMP280;12743;52.262;6.172;2023-07-08T03:56:18;101000.56;;;18.32
24586;BMP280;12743;52.262;6.172;2023-07-08T03:58:44;101001.97;;;18.19
24586;BMP280;12743;52.262;6.172;2023-07-08T04:01:20;101005.88;;;18.39
24586;BMP280;12743;52.262;6.172;2023-07-08T04:03:47;101006.56;;;18.29
24586;BMP280;12743;52.262;6.172;2023-07-08T04:06:14;100999.78;;;18.31
24586;BMP280;12743;52.262;6.172;2023-07-08T04:08:41;101001.25;;;18.32
24586;BMP280;12743;52.262;6.172;2023-07-08T04:11:11;101001.25;;;18.32
24586;BMP280;12743;52.262;6.172;2023-07-08T04:13:38;101005.88;;;18.42
24586;BMP280;12743;52.262;6.172;2023-07-08T04:16:05;101001.97;;;18.19
24586;BMP280;12743;52.262;6.172;2023-07-08T04:18:32;101005.44;;;18.26
24586;BMP280;12743;52.262;6.172;2023-07-08T04:20:59;101014.97;;;18.31
24586;BMP280;12743;52.262;6.172;2023-07-08T04:23:28;101008.53;;;18.42
24586;BMP280;12743;52.262;6.172;2023-07-08T04:25:56;101007.81;;;18.42
24586;BMP280;12743;52.262;6.172;2023-07-08T04:28:23;101007.44;;;18.43
24586;BMP280;12743;52.262;6.172;2023-07-08T04:30:50;100994.47;;;18.31
24586;BMP280;12743;52.262;6.172;2023-07-08T04:33:17;100990.63;;;18.25
24586;BMP280;12743;52.262;6.172;2023-07-08T04:35:43;101006.59;;;18.32
24586;BMP280;12743;52.262;6.172;2023-07-08T04:38:18;101015.00;;;18.41
24586;BMP280;12743;52.262;6.172;2023-07-08T04:40:48;101017.00;;;18.55
24586;BMP280;12743;52.262;6.172;2023-07-08T04:43:18;101024.94;;;18.48
24586;BMP280;12743;52.262;6.172;2023-07-08T04:45:48;101011.22;;;18.42
24586;BMP280;12743;52.262;6.172;2023-07-08T04:48:18;100988.38;;;18.27
24586;BMP280;12743;52.262;6.172;2023-07-08T04:50:47;100978.09;;;18.29
24586;BMP280;12743;52.262;6.172;2023-07-08T04:53:13;101000.91;;;18.34
24586;BMP280;12743;52.262;6.172;2023-07-08T04:55:48;101015.78;;;18.45
24586;BMP280;12743;52.262;6.172;2023-07-08T04:58:16;100999.78;;;18.31
24586;BMP280;12743;52.262;6.172;2023-07-08T05:00:42;100970.47;;;18.21
24586;BMP280;12743;52.262;6.172;2023-07-08T05:03:09;101010.75;;;18.26
24586;BMP280;12743;52.262;6.172;2023-07-08T05:05:35;101008.91;;;18.34
24586;BMP280;12743;52.262;6.172;2023-07-08T05:08:02;100991.13;;;18.45
24586;BMP280;12743;52.262;6.172;2023-07-08T05:10:29;100996.38;;;18.38
24586;BMP280;12743;52.262;6.172;2023-07-08T05:12:56;101002.94;;;18.54
24586;BMP280;12743;52.262;6.172;2023-07-08T05:15:23;100997.16;;;18.42
24586;BMP280;12743;52.262;6.172;2023-07-08T05:17:50;101004.00;;;18.46
24586;BMP280;12743;52.262;6.172;2023-07-08T05:20:17;100996.06;;;18.50
24586;BMP280;12743;52.262;6.172;2023-07-08T05:22:45;101013.97;;;18.60
24586;BMP280;12743;52.262;6.172;2023-07-08T05:25:12;101023.78;;;18.49
24586;BMP280;12743;52.262;6.172;2023-07-08T05:27:39;100992.25;;;18.47
24586;BMP280;12743;52.262;6.172;2023-07-08T05:30:15;101010.59;;;18.73
24586;BMP280;12743;52.262;6.172;2023-07-08T05:32:42;100994.69;;;18.84
24586;BMP280;12743;52.262;6.172;2023-07-08T05:35:09;100983.25;;;18.73
24586;BMP280;12743;52.262;6.172;2023-07-08T05:37:36;100997.34;;;18.88
24586;BMP280;12743;52.262;6.172;2023-07-08T05:40:03;101012.25;;;19.13
24586;BMP280;12743;52.262;6.172;2023-07-08T05:42:31;101031.25;;;19.19
24586;BMP280;12743;52.262;6.172;2023-07-08T05:44:58;101035.50;;;19.34
24586;BMP280;12743;52.262;6.172;2023-07-08T05:47:24;101039.69;;;19.49
24586;BMP280;12743;52.262;6.172;2023-07-08T05:49:51;101032.47;;;19.49
24586;BMP280;12743;52.262;6.172;2023-07-08T05:52:17;101048.06;;;19.58
24586;BMP280;12743;52.262;6.172;2023-07-08T05:54:44;101050.38;;;19.63
24586;BMP280;12743;52.262;6.172;2023-07-08T05:57:11;101027.94;;;19.60
24586;BMP280;12743;52.262;6.172;2023-07-08T05:59:38;101051.13;;;19.92
24586;BMP280;12743;52.262;6.172;2023-07-08T06:02:10;101051.13;;;19.85
24586;BMP280;12743;52.262;6.172;2023-07-08T06:04:39;101047.69;;;19.98
24586;BMP280;12743;52.262;6.172;2023-07-08T06:07:06;101066.75;;;20.00
24586;BMP280;12743;52.262;6.172;2023-07-08T06:09:33;101064.09;;;19.93
24586;BMP280;12743;52.262;6.172;2023-07-08T06:12:00;101069.38;;;20.14
24586;BMP280;12743;52.262;6.172;2023-07-08T06:14:27;101077.38;;;20.18
24586;BMP280;12743;52.262;6.172;2023-07-08T06:16:54;101072.34;;;20.48
24586;BMP280;12743;52.262;6.172;2023-07-08T06:19:21;101067.00;;;20.51
24586;BMP280;12743;52.262;6.172;2023-07-08T06:21:48;101069.38;;;20.21
24586;BMP280;12743;52.262;6.172;2023-07-08T06:24:15;101082.22;;;20.65
24586;BMP280;12743;52.262;6.172;2023-07-08T06:26:42;101082.53;;;20.81
24586;BMP280;12743;52.262;6.172;2023-07-08T06:29:08;101087.09;;;20.88
24586;BMP280;12743;52.262;6.172;2023-07-08T06:31:35;101093.50;;;21.08
24586;BMP280;12743;52.262;6.172;2023-07-08T06:34:02;101066.03;;;20.97
24586;BMP280;12743;52.262;6.172;2023-07-08T06:36:28;101087.94;;;21.36
24586;BMP280;12743;52.262;6.172;2023-07-08T06:38:55;101085.47;;;21.11
24586;BMP280;12743;52.262;6.172;2023-07-08T06:41:23;101100.63;;;21.32
24586;BMP280;12743;52.262;6.172;2023-07-08T06:43:49;101108.91;;;21.48
24586;BMP280;12743;52.262;6.172;2023-07-08T06:46:17;101118.66;;;21.68
24586;BMP280;12743;52.262;6.172;2023-07-08T06:48:43;101117.59;;;21.55
24586;BMP280;12743;52.262;6.172;2023-07-08T06:51:10;101112.44;;;21.82
24586;BMP280;12743;52.262;6.172;2023-07-08T06:53:37;101122.00;;;21.79
24586;BMP280;12743;52.262;6.172;2023-07-08T06:56:03;101115.09;;;21.82
24586;BMP280;12743;52.262;6.172;2023-07-08T06:58:30;101117.97;;;22.05
24586;BMP280;12743;52.262;6.172;2023-07-08T07:00:56;101120.19;;;22.14
24586;BMP280;12743;52.262;6.172;2023-07-08T07:03:23;101123.97;;;22.16
24586;BMP280;12743;52.262;6.172;2023-07-08T07:05:50;101125.88;;;22.16
24586;BMP280;12743;52.262;6.172;2023-07-08T07:08:17;101111.38;;;22.17
24586;BMP280;12743;52.262;6.172;2023-07-08T07:10:43;101134.81;;;22.02
24586;BMP280;12743;52.262;6.172;2023-07-08T07:13:10;101136.19;;;22.21
24586;BMP280;12743;52.262;6.172;2023-07-08T07:15:36;101143.44;;;22.20
24586;BMP280;12743;52.262;6.172;2023-07-08T07:18:03;101141.53;;;22.54
24586;BMP280;12743;52.262;6.172;2023-07-08T07:20:31;101143.13;;;22.48
24586;BMP280;12743;52.262;6.172;2023-07-08T07:22:57;101147.09;;;22.74
24586;BMP280;12743;52.262;6.172;2023-07-08T07:25:24;101139.69;;;22.81
24586;BMP280;12743;52.262;6.172;2023-07-08T07:27:51;101146.16;;;22.84
24586;BMP280;12743;52.262;6.172;2023-07-08T07:30:17;101137.66;;;22.92
24586;BMP280;12743;52.262;6.172;2023-07-08T07:32:44;101158.38;;;23.15
24586;BMP280;12743;52.262;6.172;2023-07-08T07:35:12;101153.28;;;23.24
24586;BMP280;12743;52.262;6.172;2023-07-08T07:37:43;101157.69;;;23.84
24586;BMP280;12743;52.262;6.172;2023-07-08T07:40:12;101164.59;;;23.85
24586;BMP280;12743;52.262;6.172;2023-07-08T07:42:42;101167.47;;;23.97
24586;BMP280;12743;52.262;6.172;2023-07-08T07:45:09;101159.53;;;23.90
24586;BMP280;12743;52.262;6.172;2023-07-08T07:47:37;101173.94;;;24.19
24586;BMP280;12743;52.262;6.172;2023-07-08T07:50:05;101151.59;;;23.83
24586;BMP280;12743;52.262;6.172;2023-07-08T07:52:32;101166.53;;;24.07
24586;BMP280;12743;52.262;6.172;2023-07-08T07:54:59;101175.72;;;24.06
24586;BMP280;12743;52.262;6.172;2023-07-08T07:57:26;101175.34;;;24.28
24586;BMP280;12743;52.262;6.172;2023-07-08T07:59:52;101168.69;;;24.55
24586;BMP280;12743;52.262;6.172;2023-07-08T08:02:19;101163.44;;;24.68
24586;BMP280;12743;52.262;6.172;2023-07-08T08:04:46;101156.94;;;24.65
24586;BMP280;12743;52.262;6.172;2023-07-08T08:07:13;101174.38;;;24.77
24586;BMP280;12743;52.262;6.172;2023-07-08T08:09:39;101157.56;;;25.08
24586;BMP280;12743;52.262;6.172;2023-07-08T08:12:08;101170.28;;;25.24
24586;BMP280;12743;52.262;6.172;2023-07-08T08:14:35;101170.78;;;25.51
24586;BMP280;12743;52.262;6.172;2023-07-08T08:17:02;101178.50;;;25.65
24586;BMP280;12743;52.262;6.172;2023-07-08T08:19:29;101189.34;;;25.78
24586;BMP280;12743;52.262;6.172;2023-07-08T08:21:55;101176.34;;;25.60
24586;BMP280;12743;52.262;6.172;2023-07-08T08:24:22;101170.81;;;25.96
24586;BMP280;12743;52.262;6.172;2023-07-08T08:26:52;101192.03;;;25.78
24586;BMP280;12743;52.262;6.172;2023-07-08T08:29:18;101178.53;;;25.94
24586;BMP280;12743;52.262;6.172;2023-07-08T08:31:45;101184.88;;;25.71
24586;BMP280;12743;52.262;6.172;2023-07-08T08:34:11;101185.19;;;26.18
24586;BMP280;12743;52.262;6.172;2023-07-08T08:36:38;101175.38;;;26.40
24586;BMP280;12743;52.262;6.172;2023-07-08T08:39:05;101175.53;;;26.20
24586;BMP280;12743;52.262;6.172;2023-07-08T08:41:33;101182.72;;;26.39
24586;BMP280;12743;52.262;6.172;2023-07-08T08:44:03;101181.47;;;26.28
24586;BMP280;12743;52.262;6.172;2023-07-08T08:49:21;101185.31;;;26.55
24586;BMP280;12743;52.262;6.172;2023-07-08T08:51:50;101177.50;;;26.32
24586;BMP280;12743;52.262;6.172;2023-07-08T08:54:17;101176.78;;;26.69
24586;BMP280;12743;52.262;6.172;2023-07-08T08:59:56;101201.84;;;26.95
24586;BMP280;12743;52.262;6.172;2023-07-08T09:02:37;101199.47;;;27.10
24586;BMP280;12743;52.262;6.172;2023-07-08T09:05:10;101197.25;;;27.42
24586;BMP280;12743;52.262;6.172;2023-07-08T09:08:00;101206.19;;;27.52
24586;BMP280;12743;52.262;6.172;2023-07-08T09:10:50;101208.38;;;27.44
24586;BMP280;12743;52.262;6.172;2023-07-08T09:13:24;101210.09;;;27.51
24586;BMP280;12743;52.262;6.172;2023-07-08T09:16:01;101221.84;;;27.57
24586;BMP280;12743;52.262;6.172;2023-07-08T09:18:35;101213.25;;;27.83
24586;BMP280;12743;52.262;6.172;2023-07-08T09:21:13;101206.50;;;28.00
24586;BMP280;12743;52.262;6.172;2023-07-08T09:23:43;101219.63;;;28.11
24586;BMP280;12743;52.262;6.172;2023-07-08T09:26:19;101221.50;;;28.01
24586;BMP280;12743;52.262;6.172;2023-07-08T09:28:48;101234.81;;;28.17
24586;BMP280;12743;52.262;6.172;2023-07-08T09:33:51;101233.59;;;28.62
24586;BMP280;12743;52.262;6.172;2023-07-08T09:36:22;101217.09;;;28.38
24586;BMP280;12743;52.262;6.172;2023-07-08T09:38:50;101243.00;;;28.79
24586;BMP280;12743;52.262;6.172;2023-07-08T09:41:29;101234.06;;;29.00
24586;BMP280;12743;52.262;6.172;2023-07-08T09:44:05;101233.88;;;29.03
24586;BMP280;12743;52.262;6.172;2023-07-08T09:46:36;101230.19;;;29.19
24586;BMP280;12743;52.262;6.172;2023-07-08T09:51:45;101241.78;;;29.19
24586;BMP280;12743;52.262;6.172;2023-07-08T09:54:12;101240.97;;;29.10
24586;BMP280;12743;52.262;6.172;2023-07-08T09:56:41;101242.59;;;28.98
24586;BMP280;12743;52.262;6.172;2023-07-08T09:59:13;101244.06;;;29.39
24586;BMP280;12743;52.262;6.172;2023-07-08T10:01:43;101246.72;;;29.03
24586;BMP280;12743;52.262;6.172;2023-07-08T10:04:11;101248.47;;;29.45
24586;BMP280;12743;52.262;6.172;2023-07-08T10:06:38;101247.41;;;28.94
24586;BMP280;12743;52.262;6.172;2023-07-08T10:09:11;101245.75;;;29.63
24586;BMP280;12743;52.262;6.172;2023-07-08T10:11:44;101251.44;;;29.47
24586;BMP280;12743;52.262;6.172;2023-07-08T10:14:24;101248.44;;;29.72
24586;BMP280;12743;52.262;6.172;2023-07-08T10:16:52;101249.34;;;29.42
24586;BMP280;12743;52.262;6.172;2023-07-08T10:19:20;101247.84;;;29.59
24586;BMP280;12743;52.262;6.172;2023-07-08T10:24:55;101257.00;;;30.34
24586;BMP280;12743;52.262;6.172;2023-07-08T10:27:42;101251.50;;;29.83
24586;BMP280;12743;52.262;6.172;2023-07-08T10:30:23;101254.78;;;29.60
24586;BMP280;12743;52.262;6.172;2023-07-08T10:35:48;101248.31;;;29.85
24586;BMP280;12743;52.262;6.172;2023-07-08T10:38:55;101252.53;;;29.95
24586;BMP280;12743;52.262;6.172;2023-07-08T10:42:31;101250.25;;;29.93
24586;BMP280;12743;52.262;6.172;2023-07-08T10:44:40;101242.84;;;30.30
24586;BMP280;12743;52.262;6.172;2023-07-08T10:55:51;101247.53;;;30.62
24586;BMP280;12743;52.262;6.172;2023-07-08T10:58:35;101261.47;;;30.79
24586;BMP280;12743;52.262;6.172;2023-07-08T11:06:45;101255.78;;;31.33
24586;BMP280;12743;52.262;6.172;2023-07-08T11:09:27;101264.16;;;30.88
24586;BMP280;12743;52.262;6.172;2023-07-08T11:12:05;101262.34;;;30.94
24586;BMP280;12743;52.262;6.172;2023-07-08T11:14:56;101269.38;;;30.68
24586;BMP280;12743;52.262;6.172;2023-07-08T11:17:37;101256.00;;;30.97
24586;BMP280;12743;52.262;6.172;2023-07-08T11:20:22;101257.47;;;31.45
24586;BMP280;12743;52.262;6.172;2023-07-08T11:23:01;101234.66;;;31.51
24586;BMP280;12743;52.262;6.172;2023-07-08T11:25:31;101247.97;;;31.26
24586;BMP280;12743;52.262;6.172;2023-07-08T11:28:00;101236.25;;;30.96
24586;BMP280;12743;52.262;6.172;2023-07-08T11:30:32;101237.09;;;31.26
24586;BMP280;12743;52.262;6.172;2023-07-08T11:33:06;101235.84;;;31.12
24586;BMP280;12743;52.262;6.172;2023-07-08T11:35:40;101238.00;;;31.99
24586;BMP280;12743;52.262;6.172;2023-07-08T11:38:12;101247.72;;;32.20
24586;BMP280;12743;52.262;6.172;2023-07-08T11:41:01;101250.88;;;31.89
24586;BMP280;12743;52.262;6.172;2023-07-08T11:43:51;101231.81;;;31.98
24586;BMP280;12743;52.262;6.172;2023-07-08T11:46:24;101248.81;;;32.43
24586;BMP280;12743;52.262;6.172;2023-07-08T11:48:57;101241.22;;;31.74
24586;BMP280;12743;52.262;6.172;2023-07-08T11:51:30;101237.03;;;31.87
24586;BMP280;12743;52.262;6.172;2023-07-08T11:54:00;101229.97;;;31.52
24586;BMP280;12743;52.262;6.172;2023-07-08T11:56:27;101236.34;;;31.63
24586;BMP280;12743;52.262;6.172;2023-07-08T12:01:54;101219.25;;;31.86
24586;BMP280;12743;52.262;6.172;2023-07-08T12:04:27;101226.66;;;32.15
24586;BMP280;12743;52.262;6.172;2023-07-08T12:07:06;101231.25;;;32.58
24586;BMP280;12743;52.262;6.172;2023-07-08T12:09:39;101231.91;;;32.53
24586;BMP280;12743;52.262;6.172;2023-07-08T12:12:37;101228.34;;;33.02
24586;BMP280;12743;52.262;6.172;2023-07-08T12:15:29;101230.91;;;32.71
24586;BMP280;12743;52.262;6.172;2023-07-08T12:18:06;101237.69;;;32.95
24586;BMP280;12743;52.262;6.172;2023-07-08T12:20:38;101224.47;;;32.19
24586;BMP280;12743;52.262;6.172;2023-07-08T12:23:17;101224.09;;;32.61
24586;BMP280;12743;52.262;6.172;2023-07-08T12:25:45;101240.28;;;33.04
24586;BMP280;12743;52.262;6.172;2023-07-08T12:28:12;101237.25;;;33.22
24586;BMP280;12743;52.262;6.172;2023-07-08T12:30:39;101235.22;;;33.37
24586;BMP280;12743;52.262;6.172;2023-07-08T12:33:11;101228.22;;;33.31
24586;BMP280;12743;52.262;6.172;2023-07-08T12:35:39;101227.13;;;33.48
24586;BMP280;12743;52.262;6.172;2023-07-08T12:38:40;101235.69;;;33.36
24586;BMP280;12743;52.262;6.172;2023-07-08T12:41:12;101230.34;;;33.72
24586;BMP280;12743;52.262;6.172;2023-07-08T12:43:40;101232.53;;;33.43
24586;BMP280;12743;52.262;6.172;2023-07-08T12:46:09;101230.81;;;33.45
24586;BMP280;12743;52.262;6.172;2023-07-08T12:48:38;101224.03;;;33.61
24586;BMP280;12743;52.262;6.172;2023-07-08T12:51:09;101216.91;;;33.63
24586;BMP280;12743;52.262;6.172;2023-07-08T12:53:36;101220.19;;;33.47
24586;BMP280;12743;52.262;6.172;2023-07-08T12:56:03;101220.31;;;33.13
24586;BMP280;12743;52.262;6.172;2023-07-08T12:58:33;101221.03;;;33.84
24586;BMP280;12743;52.262;6.172;2023-07-08T13:01:02;101235.78;;;34.03
24586;BMP280;12743;52.262;6.172;2023-07-08T13:03:34;101214.94;;;34.37
24586;BMP280;12743;52.262;6.172;2023-07-08T13:06:02;101225.09;;;34.31
24586;BMP280;12743;52.262;6.172;2023-07-08T13:08:32;101228.81;;;34.76
24586;BMP280;12743;52.262;6.172;2023-07-08T13:11:01;101221.56;;;34.72
24586;BMP280;12743;52.262;6.172;2023-07-08T13:13:34;101218.03;;;33.82
24586;BMP280;12743;52.262;6.172;2023-07-08T13:16:02;101211.94;;;34.83
24586;BMP280;12743;52.262;6.172;2023-07-08T13:18:35;101209.50;;;34.90
24586;BMP280;12743;52.262;6.172;2023-07-08T13:21:04;101219.19;;;34.97
24586;BMP280;12743;52.262;6.172;2023-07-08T13:23:32;101220.91;;;34.89
24586;BMP280;12743;52.262;6.172;2023-07-08T13:26:01;101222.59;;;34.75
24586;BMP280;12743;52.262;6.172;2023-07-08T13:28:35;101215.19;;;34.76
24586;BMP280;12743;52.262;6.172;2023-07-08T13:31:13;101216.78;;;35.21
24586;BMP280;12743;52.262;6.172;2023-07-08T13:33:46;101222.50;;;35.12
24586;BMP280;12743;52.262;6.172;2023-07-08T13:36:13;101221.97;;;35.13
24586;BMP280;12743;52.262;6.172;2023-07-08T13:38:43;101218.47;;;35.13
24586;BMP280;12743;52.262;6.172;2023-07-08T13:41:10;101216.97;;;35.01
24586;BMP280;12743;52.262;6.172;2023-07-08T13:43:42;101230.72;;;35.45
24586;BMP280;12743;52.262;6.172;2023-07-08T13:46:28;101225.25;;;35.28
24586;BMP280;12743;52.262;6.172;2023-07-08T13:48:56;101236.19;;;35.34
24586;BMP280;12743;52.262;6.172;2023-07-08T13:51:23;101224.75;;;35.63
24586;BMP280;12743;52.262;6.172;2023-07-08T13:53:53;101230.22;;;35.52
24586;BMP280;12743;52.262;6.172;2023-07-08T13:56:30;101224.94;;;35.10
24586;BMP280;12743;52.262;6.172;2023-07-08T13:59:18;101218.03;;;35.91
24586;BMP280;12743;52.262;6.172;2023-07-08T14:01:45;101229.13;;;35.00
24586;BMP280;12743;52.262;6.172;2023-07-08T14:04:17;101225.91;;;36.33
24586;BMP280;12743;52.262;6.172;2023-07-08T14:06:44;101218.53;;;35.68
24586;BMP280;12743;52.262;6.172;2023-07-08T14:09:15;101220.59;;;36.57
24586;BMP280;12743;52.262;6.172;2023-07-08T14:11:43;101219.78;;;35.89
24586;BMP280;12743;52.262;6.172;2023-07-08T14:14:10;101216.41;;;36.45
24586;BMP280;12743;52.262;6.172;2023-07-08T14:16:40;101231.44;;;36.17
24586;BMP280;12743;52.262;6.172;2023-07-08T14:19:13;101228.38;;;36.31
24586;BMP280;12743;52.262;6.172;2023-07-08T14:21:40;101224.47;;;35.39
24586;BMP280;12743;52.262;6.172;2023-07-08T14:24:16;101221.78;;;35.83
24586;BMP280;12743;52.262;6.172;2023-07-08T14:26:43;101218.25;;;36.10
24586;BMP280;12743;52.262;6.172;2023-07-08T14:29:10;101217.44;;;36.31
24586;BMP280;12743;52.262;6.172;2023-07-08T14:31:39;101215.06;;;35.95
24586;BMP280;12743;52.262;6.172;2023-07-08T14:34:08;101221.22;;;36.80
24586;BMP280;12743;52.262;6.172;2023-07-08T14:36:35;101206.25;;;36.24
24586;BMP280;12743;52.262;6.172;2023-07-08T14:39:13;101221.75;;;35.72
24586;BMP280;12743;52.262;6.172;2023-07-08T14:41:41;101212.56;;;35.42
24586;BMP280;12743;52.262;6.172;2023-07-08T14:44:21;101213.81;;;35.96
24586;BMP280;12743;52.262;6.172;2023-07-08T14:46:48;101212.22;;;36.39
24586;BMP280;12743;52.262;6.172;2023-07-08T14:49:21;101220.66;;;36.35
24586;BMP280;12743;52.262;6.172;2023-07-08T14:51:48;101224.28;;;35.81
24586;BMP280;12743;52.262;6.172;2023-07-08T14:54:16;101214.50;;;36.07
24586;BMP280;12743;52.262;6.172;2023-07-08T14:56:43;101200.66;;;35.61